Time;durP1;ratioP1;P1;durP2;ratioP2;P2;SDS_P1;SDS_P2;PMS_P1;PMS_P2;Temp;Humidity;BMP_temperature;BMP_pressure;BME280_temperature;BME280_humidity;BME280_pressure;Samples;Min_cycle;Max_cycle;Signal;HPM_P1;HPM_P2
2021/05/06 00:33:57;;;;;;;7.35;3.15;;;14.10;53.40;;;;;;6131779;29;20038;-78
2021/05/06 00:36:59;;;;;;;9.85;3.20;;;14.00;53.50;;;;;;6115863;29;20063;-77
2021/05/06 00:40:04;;;;;;;13.38;7.90;;;14.00;53.70;;;;;;6131636;29;20062;-78
2021/05/06 00:59:47;;;;;;;17.98;9.32;;;13.90;53.90;;;;;;6132083;29;20034;-76
2021/05/06 01:06:19;;;;;;;8.63;5.28;;;13.80;54.10;;;;;;6124666;29;20043;-76
2021/05/06 01:09:23;;;;;;;10.55;4.60;;;13.80;54.20;;;;;;6114733;29;20403;-78
2021/05/06 01:12:24;;;;;;;6.93;3.90;;;13.70;54.20;;;;;;6115276;29;20095;-77
2021/05/06 01:15:25;;;;;;;7.18;2.53;;;13.80;54.30;;;;;;6130845;29;20427;-77
2021/05/06 01:18:27;;;;;;;4.47;2.25;;;13.70;54.40;;;;;;6131304;29;20075;-77
2021/05/06 01:21:28;;;;;;;3.25;1.90;;;13.70;54.50;;;;;;6114576;29;20063;-77
2021/05/06 01:24:29;;;;;;;2.53;1.70;;;13.70;54.60;;;;;;6114451;29;20036;-76
2021/05/06 01:31:01;;;;;;;2.33;1.35;;;13.60;55.00;;;;;;6130563;29;20024;-77
2021/05/06 01:34:17;;;;;;;2.70;1.40;;;13.50;55.20;;;;;;6114974;29;20031;-77
2021/05/06 01:37:25;;;;;;;7.97;1.70;;;13.50;55.40;;;;;;6129947;29;20031;-77
2021/05/06 01:44:17;;;;;;;4.32;2.33;;;13.30;55.80;;;;;;6131019;29;20115;-77
2021/05/06 01:47:30;;;;;;;3.05;1.92;;;13.30;56.20;;;;;;6130104;29;20066;-77
2021/05/06 01:50:52;;;;;;;5.32;2.45;;;13.20;56.40;;;;;;6124016;29;20420;-77
2021/05/06 02:01:06;;;;;;;6.22;2.33;;;13.10;57.00;;;;;;6082218;29;20107;-77
2021/05/06 02:04:11;;;;;;;4.85;1.77;;;13.10;57.00;;;;;;6088356;29;20052;-79
2021/05/06 02:07:13;;;;;;;2.95;2.00;;;13.10;57.00;;;;;;6080348;29;20041;-77
2021/05/06 02:10:29;;;;;;;3.92;1.70;;;13.10;57.00;;;;;;6072654;29;20044;-79
2021/05/06 02:13:34;;;;;;;3.33;1.70;;;13.10;57.00;;;;;;6073774;29;20036;-78
2021/05/06 02:16:39;;;;;;;6.43;1.73;;;13.20;56.90;;;;;;6070684;29;20108;-78
2021/05/06 02:19:47;;;;;;;6.28;1.80;;;13.20;56.80;;;;;;6073979;29;20032;-78
2021/05/06 02:22:50;;;;;;;4.90;1.70;;;13.20;56.70;;;;;;6070821;29;20361;-77
2021/05/06 02:25:52;;;;;;;3.60;1.42;;;13.20;56.60;;;;;;6050530;29;20043;-78
2021/05/06 02:28:53;;;;;;;1.33;1.20;;;13.20;56.70;;;;;;6066326;29;20049;-78
2021/05/06 02:31:55;;;;;;;6.78;1.30;;;13.20;56.80;;;;;;6081621;29;20131;-77
2021/05/06 02:34:57;;;;;;;3.60;1.65;;;13.10;56.80;;;;;;6076784;29;20432;-76
2021/05/06 02:37:58;;;;;;;2.67;1.48;;;13.20;56.80;;;;;;6097283;29;20036;-77
2021/05/06 02:40:59;;;;;;;2.50;1.30;;;13.10;56.70;;;;;;6130862;29;20103;-79
2021/05/06 02:44:00;;;;;;;2.67;1.48;;;13.20;56.70;;;;;;6097928;29;20046;-78
2021/05/06 02:47:02;;;;;;;3.28;1.52;;;13.20;56.70;;;;;;6113427;29;20340;-77
2021/05/06 02:50:09;;;;;;;2.22;1.45;;;13.10;56.70;;;;;;6130600;29;20535;-77
2021/05/06 02:53:13;;;;;;;1.40;1.15;;;13.20;56.80;;;;;;6130143;29;20084;-77
2021/05/06 02:56:22;;;;;;;3.38;1.65;;;13.20;56.80;;;;;;6120707;29;20126;-77
2021/05/06 03:05:51;;;;;;;4.65;1.67;;;13.20;56.80;;;;;;6082712;29;20029;-77
2021/05/06 03:09:01;;;;;;;8.77;1.75;;;13.20;56.80;;;;;;6082181;29;20049;-77
2021/05/06 03:24:49;;;;;;;4.93;1.55;;;13.10;56.90;;;;;;6083070;29;20028;-77
2021/05/06 03:28:11;;;;;;;3.05;1.40;;;13.10;57.00;;;;;;6081969;29;20040;-77
2021/05/06 03:48:24;;;;;;;5.18;1.92;;;13.20;57.20;;;;;;6039044;29;20041;-79
2021/05/06 04:14:57;;;;;;;3.15;1.40;;;12.90;57.30;;;;;;6060989;29;20049;-78
2021/05/06 04:38:01;;;;;;;3.70;1.63;;;12.90;57.90;;;;;;6015406;29;20074;-79
2021/05/06 05:07:24;;;;;;;9.68;1.67;;;13.10;57.20;;;;;;6036881;29;20038;-80
2021/05/06 05:10:41;;;;;;;2.88;1.55;;;13.20;57.10;;;;;;6060952;29;20067;-78
2021/05/06 05:20:35;;;;;;;2.92;1.60;;;13.30;56.60;;;;;;6085682;29;20516;-77
2021/05/06 05:23:36;;;;;;;3.20;1.35;;;13.30;56.60;;;;;;6084439;29;20033;-77
2021/05/06 05:26:37;;;;;;;6.15;1.50;;;13.30;56.70;;;;;;6084149;29;20054;-78
2021/05/06 05:29:39;;;;;;;10.93;1.98;;;13.30;56.80;;;;;;6084253;29;20424;-77
2021/05/06 05:32:40;;;;;;;3.78;1.75;;;13.30;56.80;;;;;;6085007;29;20060;-77
2021/05/06 05:36:41;;;;;;;2.17;1.42;;;13.30;56.90;;;;;;6099392;29;20037;-78
2021/05/06 05:39:20;;;;;;;4.40;1.50;;;13.30;56.80;;;;;;6077337;29;20381;-78
2021/05/06 05:55:19;;;;;;;3.22;1.42;;;13.30;56.50;;;;;;6087143;29;20033;-78
2021/05/06 05:58:20;;;;;;;7.45;1.42;;;13.30;56.60;;;;;;6086330;29;20096;-77
2021/05/06 06:01:23;;;;;;;5.15;1.75;;;13.30;56.50;;;;;;6089969;29;20062;-77
2021/05/06 06:04:24;;;;;;;6.18;2.20;;;13.40;56.40;;;;;;6134774;29;20052;-78
2021/05/06 06:07:25;;;;;;;3.28;1.60;;;13.50;56.40;;;;;;6103211;29;20031;-78
2021/05/06 06:10:27;;;;;;;5.20;1.50;;;13.50;56.30;;;;;;6115590;29;20046;-77
2021/05/06 06:13:29;;;;;;;4.50;1.42;;;13.60;56.10;;;;;;6114772;29;20130;-80
2021/05/06 06:16:31;;;;;;;3.40;1.33;;;13.60;55.70;;;;;;6098148;29;20024;-78
2021/05/06 06:19:36;;;;;;;4.78;1.58;;;13.70;54.90;;;;;;6115606;29;20055;-78
2021/05/06 06:22:37;;;;;;;4.93;1.73;;;13.60;54.20;;;;;;6099264;29;20034;-77
2021/05/06 06:25:38;;;;;;;4.47;1.67;;;13.60;53.90;;;;;;6131190;29;20024;-78
2021/05/06 06:28:42;;;;;;;2.20;1.38;;;13.60;53.90;;;;;;6118004;29;20438;-79
2021/05/06 06:31:46;;;;;;;3.38;1.75;;;13.70;54.00;;;;;;6131308;29;20324;-77
2021/05/06 06:34:47;;;;;;;2.80;1.60;;;13.70;53.80;;;;;;6114149;29;20035;-77
2021/05/06 06:37:49;;;;;;;1.83;1.40;;;13.70;53.70;;;;;;6129471;29;20035;-78
2021/05/06 06:40:50;;;;;;;2.05;1.50;;;13.80;53.70;;;;;;6114745;29;20031;-76
2021/05/06 06:43:53;;;;;;;2.65;1.52;;;13.90;53.70;;;;;;6133899;29;20027;-79
2021/05/06 06:47:01;;;;;;;3.17;1.60;;;14.00;53.50;;;;;;6114714;29;20047;-78
2021/05/06 06:50:03;;;;;;;4.07;2.08;;;14.10;53.30;;;;;;6113660;29;20499;-78
2021/05/06 06:53:04;;;;;;;10.38;1.27;;;14.10;53.00;;;;;;6113343;29;20039;-80
2021/05/06 06:56:05;;;;;;;3.35;1.63;;;14.20;52.80;;;;;;6112518;29;20352;-78
2021/05/06 06:59:06;;;;;;;11.73;1.90;;;14.10;52.30;;;;;;6112788;29;20043;-78
2021/05/06 07:02:07;;;;;;;3.22;1.85;;;14.20;52.30;;;;;;6113247;29;20194;-78
2021/05/06 07:09:03;;;;;;;4.85;1.30;;;14.30;52.10;;;;;;6054739;29;20437;-77
2021/05/06 07:12:04;;;;;;;2.83;1.50;;;14.50;51.30;;;;;;6046861;29;20473;-78
2021/05/06 07:15:06;;;;;;;3.58;1.33;;;14.50;50.90;;;;;;6044259;29;20033;-77
2021/05/06 07:18:08;;;;;;;3.00;1.70;;;14.60;50.90;;;;;;6050730;29;20033;-77
2021/05/06 07:21:09;;;;;;;1.98;1.10;;;14.60;50.80;;;;;;6062015;29;20033;-78
2021/05/06 07:24:12;;;;;;;2.83;1.50;;;14.60;50.70;;;;;;6061055;29;20025;-78
2021/05/06 07:27:13;;;;;;;3.83;1.58;;;14.70;50.60;;;;;;6042469;29;20478;-78
2021/05/06 07:30:14;;;;;;;4.57;1.30;;;14.80;50.50;;;;;;6047269;29;20045;-79
2021/05/06 07:33:16;;;;;;;2.50;1.23;;;14.80;50.30;;;;;;6046384;29;20045;-78
2021/05/06 07:36:20;;;;;;;5.93;2.45;;;14.80;50.20;;;;;;6045931;29;20101;-78
2021/05/06 07:39:21;;;;;;;4.18;1.63;;;14.90;50.00;;;;;;6045695;29;20041;-77
2021/05/06 07:42:22;;;;;;;3.72;1.70;;;14.90;49.50;;;;;;6045641;29;20124;-78
2021/05/06 07:45:23;;;;;;;2.28;1.20;;;15.00;49.40;;;;;;6084993;29;20040;-78
2021/05/06 07:48:24;;;;;;;4.45;1.58;;;14.90;49.30;;;;;;6122213;29;20035;-78
2021/05/06 07:51:26;;;;;;;2.42;1.42;;;14.90;49.30;;;;;;6116080;29;20356;-78
2021/05/06 07:54:28;;;;;;;2.72;1.55;;;15.00;49.40;;;;;;6132924;29;20039;-79
2021/05/06 07:57:29;;;;;;;4.40;1.63;;;15.00;49.20;;;;;;6116382;29;20127;-78
2021/05/06 08:00:30;;;;;;;4.68;1.98;;;15.00;49.20;;;;;;6100613;29;20032;-78
2021/05/06 08:03:31;;;;;;;7.82;2.25;;;15.10;49.00;;;;;;6096046;29;20045;-79
2021/05/06 08:06:33;;;;;;;4.90;1.67;;;15.10;48.90;;;;;;6108150;29;20032;-77
2021/05/06 08:09:34;;;;;;;5.75;1.30;;;15.10;48.80;;;;;;6086686;29;20032;-78
2021/05/06 08:12:37;;;;;;;4.70;1.23;;;15.20;48.70;;;;;;6085441;29;20037;-78
2021/05/06 08:15:38;;;;;;;4.32;2.10;;;15.20;48.60;;;;;;6091361;29;20064;-78
2021/05/06 08:18:40;;;;;;;5.53;1.50;;;15.30;48.70;;;;;;6086702;29;20092;-77
2021/05/06 08:21:41;;;;;;;2.58;1.55;;;15.30;48.60;;;;;;6089665;29;20028;-77
2021/05/06 08:24:42;;;;;;;4.15;1.60;;;15.30;48.60;;;;;;6085022;29;20383;-78
2021/05/06 08:27:43;;;;;;;10.18;1.70;;;15.40;48.50;;;;;;6088367;29;20127;-78
2021/05/06 08:30:44;;;;;;;4.65;1.70;;;15.50;48.30;;;;;;6107214;29;20036;-77
2021/05/06 08:33:46;;;;;;;4.28;1.70;;;15.60;48.20;;;;;;6085164;29;20060;-79
2021/05/06 08:36:48;;;;;;;3.67;1.55;;;15.60;48.00;;;;;;6101291;29;20064;-78
2021/05/06 08:39:49;;;;;;;9.55;1.83;;;15.60;47.90;;;;;;6108242;29;20032;-78
2021/05/06 08:42:53;;;;;;;10.32;2.10;;;15.70;48.00;;;;;;6107961;29;20088;-78
2021/05/06 08:45:56;;;;;;;20.23;3.05;;;15.60;48.10;;;;;;6095840;29;20064;-77
2021/05/06 08:48:57;;;;;;;27.48;6.10;;;15.70;48.10;;;;;;6107920;29;20043;-77
2021/05/06 08:52:00;;;;;;;19.55;3.30;;;15.70;48.10;;;;;;6106452;29;20032;-78
2021/05/06 08:55:03;;;;;;;7.07;1.70;;;15.80;48.20;;;;;;6085574;29;20044;-80
2021/05/06 08:58:05;;;;;;;14.90;2.33;;;15.80;48.10;;;;;;6084668;29;20044;-79
2021/05/06 09:01:07;;;;;;;3.72;1.92;;;15.90;48.20;;;;;;6086070;29;20057;-78
2021/05/06 09:04:08;;;;;;;20.67;2.60;;;15.90;48.50;;;;;;6115110;29;20032;-79
2021/05/06 09:07:10;;;;;;;5.18;2.55;;;16.00;48.80;;;;;;6115420;29;20044;-79
2021/05/06 09:10:41;;;;;;;37.88;7.30;;;16.00;49.10;;;;;;6131250;29;20051;-79
2021/05/06 09:13:42;;;;;;;19.83;3.45;;;16.00;49.40;;;;;;6131746;29;20032;-78
2021/05/06 09:16:44;;;;;;;21.15;2.47;;;16.10;49.50;;;;;;6115591;29;20028;-78
2021/05/06 09:19:50;;;;;;;14.05;2.92;;;16.10;49.70;;;;;;6131103;29;20031;-79
2021/05/06 09:22:58;;;;;;;8.95;2.60;;;16.10;49.90;;;;;;6114947;29;20039;-78
2021/05/06 09:26:04;;;;;;;66.93;7.68;;;16.10;50.00;;;;;;6099667;29;20027;-78
2021/05/06 09:29:09;;;;;;;17.58;4.20;;;16.10;50.30;;;;;;6114767;29;20111;-78
2021/05/06 09:32:12;;;;;;;35.03;4.55;;;16.10;50.40;;;;;;6131721;29;20059;-78
2021/05/06 09:35:20;;;;;;;11.25;2.97;;;16.20;50.40;;;;;;6130701;29;20087;-78
2021/05/06 09:38:29;;;;;;;2.97;2.08;;;16.20;50.40;;;;;;6113409;29;20031;-78
2021/05/06 09:41:33;;;;;;;7.78;2.53;;;16.20;50.50;;;;;;6131261;29;20046;-78
2021/05/06 09:44:53;;;;;;;21.38;5.13;;;16.20;50.60;;;;;;6114203;29;20094;-78
2021/05/06 09:48:16;;;;;;;38.13;8.30;;;16.20;50.90;;;;;;6113762;29;20379;-78
2021/05/06 09:51:34;;;;;;;20.70;7.10;;;16.30;51.10;;;;;;6113405;29;20459;-80
2021/05/06 09:54:48;;;;;;;30.95;9.20;;;16.40;51.20;;;;;;6097617;29;20419;-78
2021/05/06 09:57:50;;;;;;;35.80;12.90;;;16.40;51.40;;;;;;6113883;29;20067;-78
2021/05/06 10:00:52;;;;;;;29.52;10.45;;;16.40;51.50;;;;;;6117846;29;20108;-78
2021/05/06 10:03:53;;;;;;;24.45;9.65;;;16.40;51.60;;;;;;6114370;29;20051;-79
2021/05/06 10:07:17;;;;;;;19.23;4.40;;;16.40;51.70;;;;;;6148405;29;20145;-79
2021/05/06 10:10:18;;;;;;;10.88;2.75;;;16.40;51.90;;;;;;6126110;29;20039;-77
2021/05/06 10:13:20;;;;;;;36.15;12.10;;;16.40;51.80;;;;;;6114920;29;20087;-78
2021/05/06 10:16:21;;;;;;;15.73;6.18;;;16.40;52.20;;;;;;6113649;29;20047;-78
2021/05/06 10:19:22;;;;;;;16.05;6.03;;;16.30;52.30;;;;;;6130630;29;20083;-78
2021/05/06 10:22:29;;;;;;;25.85;7.82;;;16.30;52.40;;;;;;6112802;29;20024;-78
2021/05/06 10:25:31;;;;;;;17.10;5.13;;;16.40;52.60;;;;;;6113591;29;20027;-78
2021/05/06 10:28:34;;;;;;;6.90;2.70;;;16.40;52.50;;;;;;6097146;29;20550;-79
2021/05/06 10:31:40;;;;;;;12.65;5.55;;;16.50;52.40;;;;;;6113228;29;20047;-79
2021/05/06 10:34:43;;;;;;;17.10;5.15;;;16.50;52.00;;;;;;6113532;29;20115;-79
2021/05/06 10:37:51;;;;;;;14.32;4.03;;;16.60;51.80;;;;;;6112897;29;20069;-79
2021/05/06 10:40:53;;;;;;;10.80;3.63;;;16.70;51.70;;;;;;6112921;29;20036;-79
2021/05/06 10:44:02;;;;;;;22.20;6.80;;;16.80;51.50;;;;;;6112951;29;20414;-79
2021/05/06 10:47:04;;;;;;;13.45;4.25;;;16.90;51.40;;;;;;6112897;29;20042;-78
2021/05/06 10:50:13;;;;;;;10.30;3.38;;;16.90;51.30;;;;;;6129807;29;20055;-79
2021/05/06 10:53:27;;;;;;;13.43;3.22;;;17.00;51.30;;;;;;6112356;29;20554;-79
2021/05/06 10:56:39;;;;;;;7.85;2.92;;;17.00;51.20;;;;;;6112684;29;20118;-79
2021/05/06 10:59:43;;;;;;;13.30;2.90;;;17.10;51.00;;;;;;6128631;29;20032;-79
2021/05/06 11:02:44;;;;;;;18.30;6.55;;;17.20;50.80;;;;;;6120719;29;20060;-79
2021/05/06 11:05:50;;;;;;;19.58;6.45;;;17.30;50.60;;;;;;6104455;29;20368;-79
2021/05/06 11:08:53;;;;;;;8.73;3.78;;;17.50;50.40;;;;;;6104225;29;20130;-78
2021/05/06 11:12:15;;;;;;;49.17;16.65;;;17.90;50.20;;;;;;6086455;29;20128;-79
2021/05/06 11:15:19;;;;;;;26.58;9.95;;;18.00;50.30;;;;;;6090183;29;20041;-78
2021/05/06 11:18:43;;;;;;;8.30;4.10;;;18.30;49.30;;;;;;6087155;29;20083;-80
2021/05/06 11:21:48;;;;;;;14.68;4.65;;;18.70;48.90;;;;;;6085980;29;20096;-78
2021/05/06 11:24:49;;;;;;;11.10;4.63;;;18.90;48.50;;;;;;6072433;29;20202;-78
2021/05/06 11:27:50;;;;;;;14.48;6.20;;;19.00;48.30;;;;;;6081419;29;20056;-78
2021/05/06 11:30:53;;;;;;;14.15;3.58;;;19.00;47.90;;;;;;6082736;29;20036;-79
2021/05/06 11:33:55;;;;;;;20.30;3.63;;;19.10;47.70;;;;;;6084086;29;20040;-78
2021/05/06 11:37:21;;;;;;;15.40;4.03;;;19.20;47.70;;;;;;6104513;29;20477;-79
2021/05/06 11:40:29;;;;;;;12.73;2.70;;;19.30;47.00;;;;;;6116941;29;20032;-79
2021/05/06 11:43:32;;;;;;;14.27;3.33;;;19.30;46.80;;;;;;6104455;29;20096;-79
2021/05/06 11:46:39;;;;;;;11.60;3.40;;;19.40;47.60;;;;;;6091215;29;20072;-78
2021/05/06 11:49:40;;;;;;;7.18;3.17;;;19.60;46.80;;;;;;6082714;29;20088;-78
2021/05/06 11:52:41;;;;;;;6.72;2.20;;;19.80;46.40;;;;;;6093237;29;20086;-79
2021/05/06 11:55:44;;;;;;;6.20;2.40;;;20.00;45.80;;;;;;6101604;29;20028;-80
2021/05/06 11:58:45;;;;;;;22.13;4.60;;;20.00;45.60;;;;;;6086060;29;20413;-78
2021/05/06 12:01:48;;;;;;;6.90;2.72;;;19.80;45.50;;;;;;6096467;29;20043;-78
2021/05/06 12:04:54;;;;;;;27.50;4.90;;;19.60;46.00;;;;;;6116482;29;20362;-79
2021/05/06 12:08:05;;;;;;;9.15;2.70;;;19.40;46.40;;;;;;6132043;29;20036;-78
2021/05/06 12:11:10;;;;;;;12.38;3.58;;;19.30;46.30;;;;;;6099753;29;20080;-79
2021/05/06 12:14:14;;;;;;;15.25;3.70;;;19.00;46.60;;;;;;6115990;29;20067;-78
2021/05/06 12:17:19;;;;;;;9.32;3.53;;;18.80;47.20;;;;;;6131674;29;20440;-79
2021/05/06 12:20:20;;;;;;;12.95;5.68;;;18.60;47.60;;;;;;6111406;29;20428;-80
2021/05/06 12:23:23;;;;;;;9.13;4.65;;;18.40;47.80;;;;;;6100276;29;20028;-79
2021/05/06 12:26:27;;;;;;;19.88;4.10;;;18.20;48.10;;;;;;6115370;29;20036;-78
2021/05/06 12:29:29;;;;;;;7.50;2.50;;;18.00;48.30;;;;;;6132728;29;20047;-78
2021/05/06 12:32:35;;;;;;;7.60;2.53;;;17.90;48.70;;;;;;6084821;29;20183;-78
2021/05/06 12:35:55;;;;;;;7.50;3.60;;;17.80;49.10;;;;;;6115443;29;20066;-78
2021/05/06 12:38:58;;;;;;;30.38;5.95;;;17.80;49.40;;;;;;6115538;29;20111;-78
2021/05/06 12:42:05;;;;;;;12.45;3.80;;;17.80;49.80;;;;;;6118078;29;20028;-77
2021/05/06 12:45:25;;;;;;;81.90;6.68;;;17.90;50.10;;;;;;6116975;29;20455;-79
2021/05/06 12:48:43;;;;;;;7.07;3.10;;;17.80;50.60;;;;;;6116242;29;20035;-79
2021/05/06 12:51:44;;;;;;;36.47;5.15;;;17.80;50.80;;;;;;6115632;29;20039;-78
2021/05/06 12:54:45;;;;;;;10.68;3.55;;;17.70;51.00;;;;;;6114950;29;20408;-79
2021/05/06 12:58:13;;;;;;;11.30;3.63;;;17.70;51.30;;;;;;6098938;29;20040;-78
2021/05/06 13:01:14;;;;;;;12.40;3.70;;;17.70;51.70;;;;;;6099221;29;20040;-78
2021/05/06 13:04:17;;;;;;;9.35;3.10;;;17.70;51.80;;;;;;6114901;29;20514;-78
2021/05/06 13:07:20;;;;;;;16.00;3.50;;;17.60;52.30;;;;;;6130512;29;20471;-79
2021/05/06 13:10:34;;;;;;;10.05;2.97;;;17.60;52.60;;;;;;6114606;29;20039;-78
2021/05/06 13:13:40;;;;;;;9.63;3.88;;;17.50;52.90;;;;;;6099439;29;20071;-78
2021/05/06 13:16:48;;;;;;;9.02;2.95;;;17.40;53.00;;;;;;6115588;29;20035;-79
2021/05/06 13:19:51;;;;;;;5.05;2.55;;;17.40;53.00;;;;;;6131627;29;20110;-78
2021/05/06 13:23:10;;;;;;;9.30;3.13;;;17.40;52.80;;;;;;6122044;29;20376;-80
2021/05/06 13:26:11;;;;;;;5.00;2.63;;;17.20;53.00;;;;;;6138909;29;20063;-78
2021/05/06 13:29:16;;;;;;;5.97;2.75;;;17.00;53.20;;;;;;6126080;29;20043;-78
2021/05/06 13:32:17;;;;;;;24.77;3.30;;;16.90;53.50;;;;;;6121041;29;20035;-78
2021/05/06 13:35:18;;;;;;;11.20;4.07;;;16.80;53.50;;;;;;6116027;29;20051;-78
2021/05/06 13:38:19;;;;;;;20.95;4.78;;;16.80;53.50;;;;;;6133882;29;20032;-78
2021/05/06 13:41:32;;;;;;;9.60;2.95;;;16.80;53.40;;;;;;6115049;29;20038;-79
2021/05/06 13:44:34;;;;;;;11.35;3.67;;;16.80;53.40;;;;;;6114748;29;20038;-79
2021/05/06 13:47:36;;;;;;;16.95;2.88;;;16.80;53.30;;;;;;6130182;29;20498;-77
2021/05/06 13:50:37;;;;;;;9.35;3.42;;;16.70;53.30;;;;;;6098753;29;20032;-78
2021/05/06 13:53:39;;;;;;;8.32;3.22;;;16.70;53.30;;;;;;6114451;29;20094;-78
2021/05/06 13:56:40;;;;;;;34.25;5.07;;;16.80;53.20;;;;;;6131041;29;20032;-79
2021/05/06 13:59:41;;;;;;;12.73;4.03;;;16.80;53.20;;;;;;6130913;29;20027;-77
2021/05/06 14:02:43;;;;;;;7.97;3.55;;;16.80;53.20;;;;;;6113225;29;20051;-79
2021/05/06 14:05:44;;;;;;;23.25;10.45;;;16.80;53.10;;;;;;6113745;29;20126;-79
2021/05/06 14:08:45;;;;;;;11.98;5.13;;;16.80;53.00;;;;;;6116049;29;20032;-79
2021/05/06 14:11:48;;;;;;;9.85;4.28;;;16.90;53.00;;;;;;6113289;29;20031;-78
2021/05/06 14:14:50;;;;;;;16.23;3.85;;;16.80;52.90;;;;;;6097859;29;20067;-78
2021/05/06 14:17:52;;;;;;;17.73;4.13;;;16.80;53.10;;;;;;6098053;29;20054;-78
2021/05/06 14:20:59;;;;;;;21.83;4.43;;;16.70;53.30;;;;;;6112640;29;20455;-78
2021/05/06 14:24:00;;;;;;;10.23;3.17;;;16.70;53.40;;;;;;6114419;29;20422;-78
2021/05/06 14:27:02;;;;;;;22.52;3.83;;;16.70;53.60;;;;;;6124229;29;20043;-78
2021/05/06 14:30:04;;;;;;;5.95;2.60;;;16.70;53.70;;;;;;6113671;29;20044;-78
2021/05/06 14:33:05;;;;;;;6.75;2.70;;;16.70;53.80;;;;;;6130754;29;20045;-79
2021/05/06 14:36:07;;;;;;;7.68;2.83;;;16.70;53.80;;;;;;6113853;29;20050;-79
2021/05/06 14:39:09;;;;;;;8.38;3.30;;;16.60;53.90;;;;;;6114813;29;20042;-79
2021/05/06 14:42:10;;;;;;;13.65;3.38;;;16.50;53.90;;;;;;6093106;29;20043;-79
2021/05/06 14:45:12;;;;;;;25.33;4.05;;;16.50;54.20;;;;;;6114200;29;20129;-80
2021/05/06 14:48:14;;;;;;;61.97;22.83;;;16.40;54.30;;;;;;6128560;29;20150;-79
2021/05/06 14:51:16;;;;;;;10.48;4.72;;;16.40;54.50;;;;;;6098194;29;20036;-80
2021/05/06 14:54:17;;;;;;;11.00;3.53;;;16.30;54.90;;;;;;6112739;29;20028;-78
2021/05/06 14:57:18;;;;;;;9.48;2.63;;;16.20;55.00;;;;;;6130251;29;20115;-78
2021/05/06 15:00:21;;;;;;;7.28;3.13;;;16.20;55.10;;;;;;6130388;29;20028;-77
2021/05/06 15:03:22;;;;;;;7.72;2.70;;;16.10;55.20;;;;;;6104149;29;20274;-79
2021/05/06 15:06:23;;;;;;;7.68;2.90;;;16.10;55.10;;;;;;6121257;29;20040;-78
2021/05/06 15:09:25;;;;;;;5.53;2.55;;;16.10;55.20;;;;;;6090307;29;20036;-78
2021/05/06 15:12:26;;;;;;;10.70;2.80;;;16.10;55.20;;;;;;6120815;29;20068;-78
2021/05/06 15:15:28;;;;;;;5.72;3.17;;;16.10;55.20;;;;;;6105699;29;20056;-78
2021/05/06 15:18:29;;;;;;;7.93;3.20;;;16.10;55.30;;;;;;6104539;29;20139;-77
2021/05/06 15:21:30;;;;;;;11.15;3.95;;;16.10;55.50;;;;;;6088836;29;20342;-78
2021/05/06 15:24:32;;;;;;;6.72;3.05;;;16.00;55.60;;;;;;6066431;29;20088;-78
2021/05/06 15:27:33;;;;;;;9.75;3.60;;;16.00;55.70;;;;;;6094912;29;20036;-78
2021/05/06 15:30:34;;;;;;;9.90;2.65;;;16.00;55.80;;;;;;6104818;29;20123;-78
2021/05/06 15:33:35;;;;;;;7.82;2.95;;;16.00;55.80;;;;;;6067206;29;20364;-78
2021/05/06 15:36:37;;;;;;;9.93;2.60;;;16.00;55.90;;;;;;6115475;29;20091;-78
2021/05/06 15:39:39;;;;;;;6.47;2.78;;;15.90;56.10;;;;;;6083348;29;20105;-79
2021/05/06 15:42:40;;;;;;;6.00;2.35;;;15.90;56.20;;;;;;6108460;29;20367;-78
2021/05/06 15:45:41;;;;;;;8.23;2.88;;;15.90;56.30;;;;;;6116756;29;20024;-78
2021/05/06 15:48:43;;;;;;;9.13;3.85;;;15.90;56.60;;;;;;6101992;29;20096;-78
2021/05/06 15:51:44;;;;;;;5.43;2.92;;;15.80;56.90;;;;;;6094822;29;20123;-79
2021/05/06 15:54:46;;;;;;;20.50;9.20;;;15.80;57.10;;;;;;6086728;29;20127;-78
2021/05/06 15:57:48;;;;;;;10.68;4.30;;;15.80;57.60;;;;;;6086906;29;20055;-78
2021/05/06 16:00:51;;;;;;;7.68;3.47;;;15.70;57.80;;;;;;6086566;29;20041;-78
2021/05/06 16:04:01;;;;;;;11.00;4.90;;;15.70;58.30;;;;;;6131594;29;20047;-79
2021/05/06 16:07:02;;;;;;;23.42;9.02;;;15.70;58.60;;;;;;6117167;29;20533;-77
2021/05/06 16:10:05;;;;;;;68.85;22.85;;;15.60;58.70;;;;;;6134769;29;20031;-78
2021/05/06 16:13:09;;;;;;;56.33;18.20;;;15.60;58.90;;;;;;6133971;29;20038;-81
2021/05/06 16:16:14;;;;;;;31.15;11.60;;;15.60;59.10;;;;;;6117813;29;20447;-78
2021/05/06 16:19:16;;;;;;;15.23;5.75;;;15.60;59.40;;;;;;6118192;29;20072;-77
2021/05/06 16:22:17;;;;;;;12.13;5.28;;;15.50;59.60;;;;;;6136143;29;20027;-78
2021/05/06 16:25:18;;;;;;;33.83;14.55;;;15.40;60.00;;;;;;6115660;29;20036;-78
2021/05/06 16:28:19;;;;;;;23.35;6.88;;;15.40;60.30;;;;;;6100373;29;20424;-79
2021/05/06 16:31:21;;;;;;;50.15;18.90;;;15.30;60.90;;;;;;6132294;29;20027;-79
2021/05/06 16:34:24;;;;;;;88.90;31.15;;;15.30;61.40;;;;;;6116238;29;20036;-78
2021/05/06 16:40:35;;;;;;;16.92;7.70;;;15.20;61.80;;;;;;6116950;29;20035;-79
2021/05/06 16:43:55;;;;;;;8.18;4.25;;;15.20;61.90;;;;;;6131429;29;20031;-78
2021/05/06 16:47:03;;;;;;;9.55;4.13;;;15.20;62.00;;;;;;6113696;29;20139;-77
2021/05/06 16:50:04;;;;;;;9.07;5.10;;;15.20;62.30;;;;;;6132203;29;20047;-78
2021/05/06 16:53:06;;;;;;;10.95;3.17;;;15.20;62.60;;;;;;6130249;29;20055;-78
2021/05/06 16:56:07;;;;;;;19.85;4.85;;;15.20;62.70;;;;;;6109813;29;20039;-78
2021/05/06 16:59:08;;;;;;;10.32;5.10;;;15.20;62.70;;;;;;6116481;29;20091;-78
2021/05/06 17:02:09;;;;;;;76.05;27.23;;;15.20;62.80;;;;;;6116200;29;20109;-78
2021/05/06 17:05:14;;;;;;;25.83;9.48;;;15.20;63.00;;;;;;6117708;29;20035;-79
2021/05/06 17:08:15;;;;;;;15.27;6.25;;;15.20;63.20;;;;;;6121087;29;20380;-78
2021/05/06 17:11:16;;;;;;;61.65;22.58;;;15.20;63.40;;;;;;6133681;29;20126;-78
2021/05/06 17:14:17;;;;;;;22.90;9.70;;;15.20;63.50;;;;;;6133566;29;20046;-79
2021/05/06 17:17:19;;;;;;;24.45;9.50;;;15.20;63.50;;;;;;6137382;29;20041;-79
2021/05/06 17:20:20;;;;;;;26.42;10.77;;;15.20;63.70;;;;;;6137802;29;20031;-78
2021/05/06 17:23:21;;;;;;;16.10;6.65;;;15.30;63.60;;;;;;6120955;29;20027;-78
2021/05/06 17:26:25;;;;;;;24.98;10.82;;;15.30;63.50;;;;;;6137461;29;20031;-78
2021/05/06 17:29:27;;;;;;;41.53;15.93;;;15.30;63.70;;;;;;6101020;29;20459;-77
2021/05/06 17:32:30;;;;;;;24.83;8.98;;;15.30;63.90;;;;;;6115201;29;20075;-78
2021/05/06 17:35:31;;;;;;;85.22;31.67;;;15.40;64.10;;;;;;6132154;29;20028;-78
2021/05/06 17:38:39;;;;;;;35.97;13.10;;;15.40;64.10;;;;;;6136500;29;20149;-79
2021/05/06 17:41:40;;;;;;;24.67;9.32;;;15.40;64.10;;;;;;6119984;29;20090;-79
2021/05/06 17:44:41;;;;;;;28.80;12.55;;;15.40;64.20;;;;;;6132041;29;20028;-78
2021/05/06 17:47:42;;;;;;;14.32;5.90;;;15.40;64.20;;;;;;6131416;29;20032;-79
2021/05/06 17:50:43;;;;;;;9.63;4.85;;;15.50;64.30;;;;;;6114916;29;20439;-78
2021/05/06 17:53:45;;;;;;;11.80;5.05;;;15.50;64.40;;;;;;6129946;29;20415;-78
2021/05/06 17:56:46;;;;;;;50.58;19.33;;;15.50;64.50;;;;;;6129740;29;20042;-78
2021/05/06 17:59:48;;;;;;;9.35;4.40;;;15.40;64.60;;;;;;6114107;29;20032;-78
2021/05/06 18:02:49;;;;;;;18.15;5.95;;;15.40;64.70;;;;;;6099172;29;20429;-79
2021/05/06 18:05:50;;;;;;;10.90;4.78;;;15.40;65.00;;;;;;6094894;29;20115;-79
2021/05/06 18:08:55;;;;;;;11.35;4.63;;;15.40;65.20;;;;;;6087892;29;20043;-79
2021/05/06 18:12:15;;;;;;;9.10;4.68;;;15.40;65.50;;;;;;6086171;29;20033;-78
2021/05/06 18:15:16;;;;;;;10.93;5.57;;;15.30;66.30;;;;;;6086750;29;20053;-77
2021/05/06 18:18:17;;;;;;;15.10;5.28;;;15.40;65.80;;;;;;6090615;29;20033;-77
2021/05/06 18:21:19;;;;;;;10.65;4.68;;;15.40;65.90;;;;;;6078444;29;20058;-78
2021/05/06 18:24:20;;;;;;;10.00;4.60;;;15.40;66.00;;;;;;6101381;29;20028;-78
2021/05/06 18:27:21;;;;;;;20.92;9.40;;;15.40;66.00;;;;;;6109259;29;20032;-78
2021/05/06 18:30:24;;;;;;;22.20;10.05;;;15.50;66.30;;;;;;6088406;29;20043;-77
2021/05/06 18:33:28;;;;;;;34.72;11.05;;;15.50;66.40;;;;;;6105778;29;20476;-79
2021/05/06 18:36:29;;;;;;;12.80;4.82;;;15.50;66.50;;;;;;6089859;29;20094;-79
2021/05/06 18:39:31;;;;;;;11.93;4.68;;;15.40;66.50;;;;;;6099922;29;20421;-78
2021/05/06 18:42:32;;;;;;;8.32;4.72;;;15.30;66.60;;;;;;6085201;29;20029;-78
2021/05/06 18:45:34;;;;;;;9.07;4.63;;;15.30;66.90;;;;;;6112955;29;20452;-78
2021/05/06 18:48:35;;;;;;;9.45;5.32;;;15.20;67.10;;;;;;6082749;29;20071;-78
2021/05/06 18:51:37;;;;;;;9.65;4.95;;;15.20;67.70;;;;;;6085327;29;20404;-78
2021/05/06 18:54:38;;;;;;;13.57;4.03;;;15.10;67.90;;;;;;6089629;29;20033;-79
2021/05/06 18:57:39;;;;;;;8.60;5.03;;;15.10;68.70;;;;;;6083265;29;20405;-79
2021/05/06 19:00:41;;;;;;;9.35;4.20;;;15.10;69.30;;;;;;6099152;29;20081;-77
2021/05/06 19:03:42;;;;;;;11.88;4.47;;;15.00;70.60;;;;;;6113972;29;20056;-79
2021/05/06 19:06:43;;;;;;;8.13;3.50;;;15.10;69.90;;;;;;6133985;29;20028;-78
2021/05/06 19:09:44;;;;;;;6.93;3.05;;;15.10;69.90;;;;;;6118995;29;20035;-77